Time;durP1;ratioP1;P1;durP2;ratioP2;P2;SDS_P1;SDS_P2;PMS_P1;PMS_P2;Temp;Humidity;BMP_temperature;BMP_pressure;BME280_temperature;BME280_humidity;BME280_pressure;Samples;Min_cycle;Max_cycle;Signal;HPM_P1;HPM_P2
2021/06/19 00:00:41;;;;;;;3.90;2.43;;;;;;;20.78;58.28;99972.31;130417;1088;23112;-67
2021/06/19 00:03:10;;;;;;;6.43;1.88;;;;;;;20.73;58.29;99969.69;130503;1088;22569;-67
2021/06/19 00:05:38;;;;;;;4.73;1.80;;;;;;;20.69;58.56;99967.86;129310;1090;114983;-66
2021/06/19 00:08:12;;;;;;;5.73;2.15;;;;;;;20.65;58.76;99967.66;125716;1090;22796;-68
2021/06/19 00:10:41;;;;;;;3.33;1.93;;;;;;;20.60;59.13;99970.57;130295;1090;113695;-66
2021/06/19 00:13:10;;;;;;;5.15;2.08;;;;;;;20.55;59.12;99972.63;130443;1088;22571;-66
2021/06/19 00:15:43;;;;;;;4.65;1.90;;;;;;;20.49;59.47;99968.36;130299;1090;113768;-66
2021/06/19 00:18:12;;;;;;;2.55;1.65;;;;;;;20.44;59.73;99972.88;130467;1088;23065;-66
2021/06/19 00:20:40;;;;;;;2.03;1.53;;;;;;;20.38;60.00;99963.04;130410;1090;23440;-66
2021/06/19 00:23:08;;;;;;;4.00;1.95;;;;;;;20.33;59.91;99967.86;130313;1088;113706;-66
2021/06/19 00:25:37;;;;;;;4.45;2.60;;;;;;;20.28;60.19;99966.02;130404;1090;22576;-65
2021/06/19 00:28:06;;;;;;;2.60;1.73;;;;;;;20.23;60.42;99957.82;130351;1090;114246;-66
2021/06/19 00:30:34;;;;;;;4.13;2.03;;;;;;;20.18;60.67;99957.95;130472;1090;22512;-66
2021/06/19 00:33:03;;;;;;;4.95;2.10;;;;;;;20.14;60.93;99956.93;130381;1088;22557;-66
2021/06/19 00:35:31;;;;;;;3.83;1.73;;;;;;;20.09;61.18;99960.62;130356;1089;113690;-66
2021/06/19 00:37:59;;;;;;;8.43;1.80;;;;;;;20.07;61.31;99959.28;130391;1090;22583;-68
2021/06/19 00:40:28;;;;;;;3.40;1.73;;;;;;;20.02;61.47;99959.42;130354;1088;113653;-67
2021/06/19 00:42:58;;;;;;;7.25;2.00;;;;;;;19.99;61.46;99954.50;130394;1089;22545;-67
2021/06/19 00:45:28;;;;;;;3.93;1.83;;;;;;;19.97;61.56;99959.52;130461;1090;22527;-66
2021/06/19 00:47:57;;;;;;;4.55;1.78;;;;;;;19.94;61.73;99958.19;130359;1089;113425;-65
2021/06/19 00:50:26;;;;;;;5.50;1.80;;;;;;;19.89;61.88;99944.48;130472;1089;22551;-65
2021/06/19 00:52:55;;;;;;;3.08;1.75;;;;;;;19.90;62.03;99959.95;130323;1088;113729;-65
2021/06/19 00:55:24;;;;;;;3.13;1.60;;;;;;;19.89;62.26;99961.08;130488;1089;23174;-65
2021/06/19 00:57:52;;;;;;;2.70;1.98;;;;;;;19.88;62.13;99958.62;129978;1089;114041;-65
2021/06/19 01:00:21;;;;;;;4.93;2.20;;;;;;;19.87;62.23;99955.03;130459;1090;22571;-65
2021/06/19 01:02:54;;;;;;;5.08;2.10;;;;;;;19.86;62.58;99963.63;130441;1090;22566;-65
2021/06/19 01:05:26;;;;;;;5.13;1.73;;;;;;;19.85;62.63;99959.23;129917;1090;113624;-67
2021/06/19 01:07:56;;;;;;;2.43;1.68;;;;;;;19.82;62.73;99952.36;130438;1090;23383;-65
2021/06/19 01:10:28;;;;;;;4.43;1.88;;;;;;;19.80;62.81;99956.56;130356;1090;113806;-65
2021/06/19 01:12:58;;;;;;;7.18;1.85;;;;;;;19.77;62.71;99964.34;130427;1089;22578;-65
2021/06/19 01:15:28;;;;;;;5.08;1.90;;;;;;;19.75;62.94;99960.27;130518;1089;22516;-65
2021/06/19 01:17:57;;;;;;;2.70;1.60;;;;;;;19.72;62.81;99955.35;130323;1088;113649;-66
2021/06/19 01:20:25;;;;;;;4.25;1.60;;;;;;;19.69;63.08;99951.25;130483;1089;23065;-67
2021/06/19 01:22:56;;;;;;;3.25;1.80;;;;;;;19.67;63.10;99947.15;130357;1089;113795;-67
2021/06/19 01:25:26;;;;;;;5.50;1.95;;;;;;;19.65;63.43;99950.22;130466;1090;22795;-66
2021/06/19 01:27:55;;;;;;;5.23;2.18;;;;;;;19.64;63.27;99954.11;130340;1089;113819;-65
2021/06/19 01:30:25;;;;;;;4.95;2.08;;;;;;;19.61;63.44;99940.92;130415;1087;22531;-66
2021/06/19 01:32:54;;;;;;;7.80;2.20;;;;;;;19.61;63.37;99949.22;130489;1087;22579;-65
2021/06/19 01:35:22;;;;;;;4.55;2.10;;;;;;;19.61;63.53;99951.98;130327;1087;113460;-65
2021/06/19 01:37:55;;;;;;;3.35;2.10;;;;;;;19.61;63.43;99948.39;130513;1089;23659;-65
2021/06/19 01:40:28;;;;;;;5.73;2.23;;;;;;;19.60;63.56;99947.58;130327;1090;113864;-65
2021/06/19 01:42:58;;;;;;;2.68;1.90;;;;;;;19.59;63.57;99945.11;130486;1087;22556;-65
2021/06/19 01:45:28;;;;;;;7.38;2.38;;;;;;;19.58;63.33;99946.23;130407;1088;22556;-66
2021/06/19 01:48:05;;;;;;;3.68;1.80;;;;;;;19.57;63.38;99948.19;130370;1087;113527;-66
2021/06/19 01:50:34;;;;;;;7.03;1.75;;;;;;;19.55;63.34;99953.20;130420;1087;22532;-66
2021/06/19 01:53:03;;;;;;;8.00;1.70;;;;;;;19.55;63.49;99949.61;130335;1090;113678;-67
2021/06/19 01:55:31;;;;;;;6.20;2.08;;;;;;;19.54;63.41;99943.27;130411;1090;22566;-66
2021/06/19 01:58:00;;;;;;;5.80;2.20;;;;;;;19.55;63.42;99944.91;130361;1089;113772;-66
2021/06/19 02:00:35;;;;;;;5.55;2.68;;;;;;;19.57;63.47;99947.36;130402;1090;22522;-67
2021/06/19 02:03:06;;;;;;;6.15;2.53;;;;;;;19.57;63.81;99941.84;130470;1090;23772;-66
2021/06/19 02:05:36;;;;;;;7.63;2.08;;;;;;;19.59;63.36;99947.88;130351;1087;113814;-66
2021/06/19 02:08:07;;;;;;;7.03;2.20;;;;;;;19.59;63.49;99945.11;130452;1089;22626;-66
2021/06/19 02:10:37;;;;;;;3.45;1.50;;;;;;;19.59;63.35;99945.94;130305;1088;113857;-66
2021/06/19 02:13:06;;;;;;;2.75;1.90;;;;;;;19.60;63.63;99943.99;130468;1089;22509;-66
2021/06/19 02:15:42;;;;;;;3.15;1.80;;;;;;;19.61;63.77;99951.16;130323;1088;114040;-66
2021/06/19 02:18:11;;;;;;;5.03;2.18;;;;;;;19.61;63.50;99945.63;130422;1087;22583;-66
2021/06/19 02:20:39;;;;;;;4.68;1.98;;;;;;;19.60;63.44;99943.99;130413;1087;23135;-66
2021/06/19 02:23:07;;;;;;;1.83;1.50;;;;;;;19.58;63.37;99946.23;130390;1087;113618;-66
2021/06/19 02:25:36;;;;;;;10.85;2.00;;;;;;;19.58;63.79;99951.77;130420;1088;22553;-66
2021/06/19 02:28:06;;;;;;;6.68;1.68;;;;;;;19.58;63.65;99954.53;130328;1088;114067;-67
2021/06/19 02:30:45;;;;;;;6.75;2.13;;;;;;;19.57;63.93;99945.42;130408;1088;22541;-67
2021/06/19 02:33:14;;;;;;;3.65;1.90;;;;;;;19.55;64.07;99949.61;130469;1087;22597;-67
2021/06/19 02:35:44;;;;;;;4.10;1.70;;;;;;;19.58;63.80;99958.12;130312;1089;113884;-67
2021/06/19 02:38:13;;;;;;;4.65;2.00;;;;;;;19.60;64.04;99958.63;130454;1090;22569;-67
2021/06/19 02:40:42;;;;;;;3.10;1.73;;;;;;;19.64;63.78;99967.93;130351;1090;114333;-67
2021/06/19 02:43:11;;;;;;;5.40;2.28;;;;;;;19.66;63.65;99968.45;130428;1088;23410;-67
2021/06/19 02:45:39;;;;;;;5.47;2.00;;;;;;;19.70;64.02;99968.66;130336;1090;114201;-65
2021/06/19 02:48:08;;;;;;;3.98;1.70;;;;;;;19.74;63.74;99969.69;130384;1089;22539;-66
2021/06/19 02:50:38;;;;;;;3.80;1.70;;;;;;;19.78;63.78;99967.92;130466;1090;22625;-66
2021/06/19 02:53:07;;;;;;;5.33;1.90;;;;;;;19.81;63.74;99974.79;130299;1088;114227;-66
2021/06/19 02:55:37;;;;;;;6.55;1.88;;;;;;;19.84;63.70;99969.47;130457;1090;22549;-66
2021/06/19 02:58:06;;;;;;;2.90;2.15;;;;;;;19.85;63.85;99968.34;130325;1090;113888;-66
2021/06/19 03:00:35;;;;;;;4.43;1.70;;;;;;;19.87;63.75;99968.04;130451;1090;23370;-66
2021/06/19 03:03:04;;;;;;;3.88;2.03;;;;;;;19.89;63.65;99968.55;130398;1090;22586;-66
2021/06/19 03:05:33;;;;;;;9.28;2.28;;;;;;;19.90;63.60;99978.49;130374;1089;113756;-66
2021/06/19 03:08:02;;;;;;;3.98;1.90;;;;;;;19.90;63.67;99970.20;130406;1087;22479;-66
2021/06/19 03:10:35;;;;;;;3.00;1.85;;;;;;;19.92;63.75;99973.44;130358;1089;114032;-66
2021/06/19 03:13:03;;;;;;;4.35;1.75;;;;;;;19.93;63.56;99964.02;130413;1087;22527;-66
2021/06/19 03:15:33;;;;;;;6.05;1.95;;;;;;;19.95;63.61;99972.83;129672;1087;114814;-65
2021/06/19 03:18:01;;;;;;;5.33;1.83;;;;;;;19.97;63.55;99976.11;130408;1090;22549;-66
2021/06/19 03:20:30;;;;;;;6.33;1.78;;;;;;;19.97;63.53;99978.88;130454;1089;22515;-66
2021/06/19 03:23:00;;;;;;;7.88;2.48;;;;;;;19.96;63.76;99980.83;130290;1088;113778;-66
2021/06/19 03:25:32;;;;;;;7.38;1.75;;;;;;;19.97;63.64;99988.00;130481;1090;22652;-66
2021/06/19 03:28:01;;;;;;;8.15;2.00;;;;;;;19.98;63.36;99981.34;130309;1090;114949;-65
2021/06/19 03:30:30;;;;;;;8.08;2.03;;;;;;;20.00;63.44;99981.03;130438;1088;22637;-66
2021/06/19 03:32:58;;;;;;;4.85;1.60;;;;;;;20.01;63.36;99983.49;130439;1088;23496;-66
2021/06/19 03:35:26;;;;;;;2.50;1.53;;;;;;;20.04;63.36;99984.83;130353;1090;113749;-67
2021/06/19 03:37:55;;;;;;;5.20;1.80;;;;;;;20.04;63.21;99977.35;130434;1089;22563;-67
2021/06/19 03:40:25;;;;;;;6.05;1.80;;;;;;;20.06;62.98;99991.66;130334;1089;113773;-67
2021/06/19 03:42:54;;;;;;;9.70;2.25;;;;;;;20.07;63.15;99993.30;130437;1088;22596;-67
2021/06/19 03:45:30;;;;;;;5.48;2.00;;;;;;;20.10;63.09;99989.10;130445;1089;23366;-67
2021/06/19 03:47:58;;;;;;;5.05;2.13;;;;;;;20.13;63.15;99981.02;130370;1089;113576;-67
2021/06/19 03:50:27;;;;;;;5.63;1.98;;;;;;;20.16;63.05;99982.34;130412;1090;22569;-67
2021/06/19 03:52:58;;;;;;;3.18;1.63;;;;;;;20.19;63.06;99986.45;130354;1089;113771;-68
2021/06/19 03:55:27;;;;;;;5.23;2.20;;;;;;;20.21;63.24;99975.86;129849;1090;22597;-68
2021/06/19 03:57:56;;;;;;;2.35;1.60;;;;;;;20.24;63.29;99969.71;130371;1089;113935;-66
2021/06/19 04:00:25;;;;;;;6.30;2.60;;;;;;;20.30;62.86;99971.25;130453;1090;23333;-66
2021/06/19 04:02:53;;;;;;;6.38;2.20;;;;;;;20.34;62.66;99970.28;130412;1088;22551;-67
2021/06/19 04:05:22;;;;;;;5.93;2.00;;;;;;;20.38;62.89;99978.83;130296;1090;113751;-66
2021/06/19 04:07:50;;;;;;;16.65;2.80;;;;;;;20.43;62.93;99978.72;130459;1088;22566;-67
2021/06/19 04:10:19;;;;;;;10.28;2.35;;;;;;;20.48;62.85;99978.61;130292;1088;114119;-66
2021/06/19 04:12:48;;;;;;;4.50;2.00;;;;;;;20.55;62.72;99980.94;130420;1090;22579;-66
2021/06/19 04:15:17;;;;;;;6.50;1.98;;;;;;;20.60;62.66;99973.34;130430;1089;22563;-66
2021/06/19 04:17:45;;;;;;;5.20;2.10;;;;;;;20.69;62.56;99988.06;130384;1089;114167;-67
2021/06/19 04:20:15;;;;;;;6.73;2.03;;;;;;;20.78;62.31;99986.16;130411;1089;22576;-66
2021/06/19 04:22:44;;;;;;;4.95;2.00;;;;;;;20.85;62.22;99994.05;130330;1089;113795;-66
2021/06/19 04:25:13;;;;;;;5.75;1.80;;;;;;;20.92;61.98;99996.39;129990;1090;22736;-65
2021/06/19 04:27:45;;;;;;;6.83;2.05;;;;;;;21.00;62.25;99995.62;130344;1090;113976;-66
2021/06/19 04:30:14;;;;;;;7.50;1.98;;;;;;;21.07;62.01;99979.35;130380;1090;22564;-66
2021/06/19 04:32:43;;;;;;;5.48;2.00;;;;;;;21.10;61.23;99987.86;130476;1089;23060;-66
2021/06/19 04:35:13;;;;;;;6.65;2.73;;;;;;;21.13;61.50;99989.19;130282;1089;115038;-66
2021/06/19 04:37:42;;;;;;;4.15;2.25;;;;;;;21.11;61.54;99985.91;130122;1090;23028;-67
2021/06/19 04:42:55;;;;;;;10.40;2.15;;;;;;;21.08;61.70;99976.27;130429;1089;22588;-66
2021/06/19 04:45:24;;;;;;;2.90;1.90;;;;;;;21.07;61.89;99977.40;130445;1090;23046;-66
2021/06/19 04:48:01;;;;;;;5.30;2.20;;;;;;;21.07;61.84;99984.89;130352;1090;113780;-66
2021/06/19 04:50:34;;;;;;;6.78;2.08;;;;;;;21.06;61.69;99988.83;130488;1090;22546;-66
2021/06/19 04:53:03;;;;;;;9.40;2.10;;;;;;;21.03;61.92;100001.36;130292;1089;114212;-66
2021/06/19 04:55:32;;;;;;;2.25;2.00;;;;;;;21.03;61.78;99989.45;130424;1088;22580;-65
2021/06/19 04:58:03;;;;;;;5.08;2.53;;;;;;;21.05;61.71;99993.55;130320;1089;114279;-65
2021/06/19 05:00:33;;;;;;;4.75;2.25;;;;;;;21.05;61.37;99988.01;130458;1089;22538;-65
2021/06/19 05:03:02;;;;;;;8.50;2.93;;;;;;;21.06;60.73;99986.84;130392;1088;23328;-65
2021/06/19 05:05:31;;;;;;;7.50;2.90;;;;;;;21.08;61.14;99986.53;130380;1087;113839;-65
2021/06/19 05:08:01;;;;;;;7.05;2.10;;;;;;;21.15;61.90;99978.61;130342;1089;22576;-65
2021/06/19 05:10:30;;;;;;;10.28;2.20;;;;;;;21.23;61.63;99977.03;130360;1088;113787;-65
2021/06/19 05:12:58;;;;;;;10.20;2.40;;;;;;;21.32;61.56;99984.28;130436;1090;22557;-65
2021/06/19 05:15:27;;;;;;;6.73;2.83;;;;;;;21.51;61.21;99981.25;130447;1087;22967;-65
2021/06/19 05:17:56;;;;;;;6.18;2.53;;;;;;;21.72;60.68;99971.24;130336;1089;113619;-66
2021/06/19 05:20:27;;;;;;;6.55;2.18;;;;;;;21.92;60.45;99972.63;130477;1090;23570;-65
2021/06/19 05:22:56;;;;;;;3.23;1.75;;;;;;;22.16;59.36;99970.25;130293;1088;113773;-66
2021/06/19 05:25:25;;;;;;;6.75;2.23;;;;;;;22.41;58.76;99970.59;130509;1090;22626;-66
2021/06/19 05:27:54;;;;;;;9.65;2.20;;;;;;;22.64;58.70;99976.83;130330;1089;114249;-66
2021/06/19 05:30:22;;;;;;;5.60;2.00;;;;;;;22.87;57.53;99989.41;130397;1089;22610;-66
2021/06/19 05:32:51;;;;;;;8.25;2.05;;;;;;;23.05;57.15;99976.31;130301;1090;23708;-66
2021/06/19 05:35:19;;;;;;;8.75;2.20;;;;;;;23.18;56.16;99983.65;130320;1090;113812;-66
2021/06/19 05:37:48;;;;;;;10.95;2.23;;;;;;;23.28;56.18;99977.73;130423;1089;22975;-66
2021/06/19 05:40:17;;;;;;;4.90;2.30;;;;;;;23.38;55.69;99979.32;130349;1089;114426;-65
2021/06/19 05:42:46;;;;;;;6.33;2.80;;;;;;;23.47;55.19;99983.73;130421;1088;24597;-65
2021/06/19 05:45:15;;;;;;;5.23;1.90;;;;;;;23.55;55.12;99993.20;130424;1088;22550;-65
2021/06/19 05:47:43;;;;;;;9.50;2.30;;;;;;;23.61;55.31;99986.33;130340;1089;113811;-65
2021/06/19 05:50:12;;;;;;;6.30;2.13;;;;;;;23.69;55.10;99990.20;130129;1088;22586;-65
2021/06/19 05:52:42;;;;;;;27.68;3.93;;;;;;;23.70;54.99;99983.49;130356;1089;113823;-65
2021/06/19 05:55:15;;;;;;;7.48;2.35;;;;;;;23.71;55.35;99994.29;130179;1089;22585;-64
2021/06/19 05:57:44;;;;;;;7.98;2.35;;;;;;;23.72;55.19;99984.80;125803;1089;113320;-65
2021/06/19 06:00:13;;;;;;;11.48;2.65;;;;;;;23.72;54.44;99986.76;125733;1090;26614;-66
2021/06/19 06:02:43;;;;;;;9.10;2.53;;;;;;;23.70;55.23;99989.88;125833;1090;22782;-66
2021/06/19 06:05:12;;;;;;;8.08;2.33;;;;;;;23.72;56.18;99986.76;125517;1088;113832;-66
2021/06/19 06:07:40;;;;;;;5.90;2.60;;;;;;;23.73;55.60;99986.43;125729;1089;26303;-66
2021/06/19 06:10:09;;;;;;;9.70;2.65;;;;;;;23.79;55.31;99987.07;130252;1090;113958;-65
2021/06/19 06:12:37;;;;;;;8.73;2.83;;;;;;;23.81;55.40;99993.09;130473;1089;22533;-65
2021/06/19 06:15:08;;;;;;;8.88;2.48;;;;;;;23.82;55.26;99989.98;130425;1090;22639;-65
2021/06/19 06:17:36;;;;;;;9.50;2.40;;;;;;;23.86;55.39;99992.91;130368;1088;113150;-65
2021/06/19 06:20:05;;;;;;;6.98;2.58;;;;;;;23.90;56.65;100000.27;130406;1089;22516;-65
2021/06/19 06:22:34;;;;;;;6.83;3.05;;;;;;;23.95;55.18;99994.49;130347;1088;114016;-66
2021/06/19 06:25:03;;;;;;;6.65;2.90;;;;;;;24.01;55.54;99989.56;130422;1089;22637;-66
2021/06/19 06:27:34;;;;;;;7.43;2.60;;;;;;;24.04;55.27;99988.89;130472;1089;23689;-66
2021/06/19 06:30:04;;;;;;;13.15;2.40;;;;;;;24.06;56.12;99994.95;130310;1089;113622;-66
2021/06/19 06:32:34;;;;;;;6.25;2.30;;;;;;;24.10;55.74;99990.31;130459;1090;23339;-65
2021/06/19 06:35:05;;;;;;;7.90;2.10;;;;;;;24.16;55.86;99999.30;130309;1090;113738;-65
2021/06/19 06:37:36;;;;;;;10.20;2.38;;;;;;;24.19;55.24;99987.50;130471;1090;22647;-68
2021/06/19 06:40:05;;;;;;;8.20;3.10;;;;;;;24.22;55.60;99987.64;130275;1090;114537;-65
2021/06/19 06:42:34;;;;;;;20.43;2.90;;;;;;;24.27;55.58;99981.89;130460;1090;23299;-65
2021/06/19 06:45:02;;;;;;;6.40;2.55;;;;;;;24.33;53.79;99981.70;130421;1090;22537;-65
2021/06/19 06:47:31;;;;;;;9.83;3.33;;;;;;;24.36;54.22;99981.03;129925;1090;114009;-65
2021/06/19 06:50:00;;;;;;;10.43;2.75;;;;;;;24.39;54.70;99983.93;130480;1090;22599;-66
2021/06/19 06:52:28;;;;;;;5.90;2.30;;;;;;;24.46;54.50;99986.19;130283;1090;114913;-65
2021/06/19 06:54:57;;;;;;;4.85;2.20;;;;;;;24.50;53.97;99981.58;130417;1088;23001;-66
2021/06/19 06:57:25;;;;;;;3.83;2.23;;;;;;;24.54;54.36;99983.33;130388;1088;23563;-67
2021/06/19 06:59:53;;;;;;;9.18;2.58;;;;;;;24.58;54.64;99975.92;130338;1089;114678;-65
2021/06/19 07:02:22;;;;;;;5.53;2.85;;;;;;;24.65;54.14;99976.20;130374;1087;23082;-66
2021/06/19 07:04:50;;;;;;;9.70;2.48;;;;;;;24.68;54.83;99980.27;130360;1088;113989;-66
2021/06/19 07:07:19;;;;;;;8.63;2.18;;;;;;;24.69;54.51;99984.68;130404;1087;22535;-65
2021/06/19 07:09:47;;;;;;;8.35;2.43;;;;;;;24.65;53.34;99973.42;130390;1087;114116;-65
2021/06/19 07:12:16;;;;;;;4.68;2.40;;;;;;;24.62;54.12;99974.09;130416;1087;22587;-65
2021/06/19 07:14:44;;;;;;;10.25;2.60;;;;;;;24.67;53.67;99984.23;130462;1088;22524;-65
2021/06/19 07:17:12;;;;;;;3.25;2.08;;;;;;;24.69;52.99;99987.47;130285;1090;114241;-65
2021/06/19 07:19:43;;;;;;;9.28;2.60;;;;;;;24.70;53.58;99980.73;130463;1088;22554;-66
2021/06/19 07:22:11;;;;;;;6.43;2.88;;;;;;;24.69;53.53;99981.89;130290;1090;114106;-66
2021/06/19 07:24:40;;;;;;;7.60;3.25;;;;;;;24.68;53.31;99981.08;130448;1088;22610;-66
2021/06/19 07:27:08;;;;;;;6.03;2.88;;;;;;;24.70;53.64;99975.16;126529;1090;22940;-65
2021/06/19 07:29:37;;;;;;;7.15;2.58;;;;;;;24.73;53.76;99979.25;130325;1088;113741;-66
2021/06/19 07:32:06;;;;;;;6.25;2.40;;;;;;;24.76;54.30;99989.72;130425;1089;22566;-65
2021/06/19 07:34:35;;;;;;;5.78;2.38;;;;;;;24.78;53.76;99982.66;130381;1090;113764;-66
2021/06/19 07:37:06;;;;;;;7.05;2.83;;;;;;;24.78;54.07;99977.08;130447;1090;23058;-66
2021/06/19 07:39:35;;;;;;;10.95;3.03;;;;;;;24.78;54.32;99974.29;130398;1089;22656;-66
2021/06/19 07:42:03;;;;;;;6.55;2.75;;;;;;;24.84;54.19;99984.05;130350;1090;113780;-66
2021/06/19 07:44:32;;;;;;;7.58;2.35;;;;;;;24.88;53.77;99976.65;130432;1088;22598;-66
2021/06/19 07:47:00;;;;;;;10.18;4.15;;;;;;;24.91;54.44;99975.97;130337;1090;113805;-66
2021/06/19 07:49:29;;;;;;;7.15;2.85;;;;;;;24.96;54.08;99967.41;130454;1089;23568;-66
2021/06/19 07:51:58;;;;;;;7.35;2.48;;;;;;;25.03;53.75;99971.62;130369;1090;114074;-66
2021/06/19 07:54:26;;;;;;;13.43;3.00;;;;;;;25.08;53.87;99976.99;130372;1089;22568;-66
2021/06/19 07:56:55;;;;;;;8.88;2.78;;;;;;;25.13;53.88;99983.15;130411;1089;22550;-66
2021/06/19 07:59:24;;;;;;;4.55;2.80;;;;;;;25.18;53.91;99974.58;130306;1088;113771;-66
2021/06/19 08:01:52;;;;;;;7.83;2.60;;;;;;;25.23;54.13;99971.58;130522;1089;22605;-66
2021/06/19 08:04:20;;;;;;;8.85;3.35;;;;;;;25.29;54.37;99970.18;130354;1088;113995;-66
2021/06/19 08:06:49;;;;;;;18.15;4.15;;;;;;;25.32;54.06;99966.70;130491;1090;22556;-66
2021/06/19 08:09:17;;;;;;;17.10;3.45;;;;;;;25.32;53.77;99951.94;130360;1090;23439;-66
2021/06/19 08:11:45;;;;;;;6.80;3.38;;;;;;;25.34;54.60;99964.39;130387;1088;113807;-66
2021/06/19 08:14:15;;;;;;;9.95;3.28;;;;;;;25.38;54.20;99958.13;130423;1090;22623;-66
2021/06/19 08:16:48;;;;;;;7.23;3.15;;;;;;;25.43;54.48;99955.09;130333;1089;114224;-66
2021/06/19 08:19:17;;;;;;;5.53;3.10;;;;;;;25.45;54.06;99952.77;130458;1090;23403;-66
2021/06/19 08:21:46;;;;;;;12.65;3.70;;;;;;;25.47;54.48;99954.06;130410;1090;113923;-67
2021/06/19 08:24:15;;;;;;;9.88;4.28;;;;;;;25.48;54.45;99944.53;130488;1090;22574;-67
2021/06/19 08:26:44;;;;;;;9.80;3.68;;;;;;;25.51;54.30;99941.05;127447;1090;23645;-66
2021/06/19 08:29:13;;;;;;;10.43;3.23;;;;;;;25.54;54.68;99943.13;130201;1090;113811;-66
2021/06/19 08:31:42;;;;;;;3.53;2.70;;;;;;;25.60;54.65;99940.93;130419;1089;23129;-67
2021/06/19 08:34:10;;;;;;;24.13;4.28;;;;;;;25.62;53.95;99945.03;130055;1090;114172;-66
2021/06/19 08:36:40;;;;;;;16.53;3.75;;;;;;;25.67;53.37;99944.81;130482;1088;22535;-66
2021/06/19 08:39:08;;;;;;;10.30;3.95;;;;;;;25.71;51.80;99942.12;130497;1088;22565;-67
2021/06/19 08:41:37;;;;;;;9.45;3.60;;;;;;;25.67;52.59;99935.63;130315;1087;114001;-65
2021/06/19 08:44:06;;;;;;;17.20;3.73;;;;;;;25.71;52.26;99942.94;130463;1090;22502;-65
2021/06/19 08:46:34;;;;;;;5.38;3.25;;;;;;;25.73;52.14;99945.38;130303;1088;113985;-66
2021/06/19 08:49:03;;;;;;;11.35;3.63;;;;;;;25.71;53.06;99942.12;130484;1089;22643;-64
2021/06/19 08:51:33;;;;;;;6.85;3.15;;;;;;;25.72;53.26;99938.17;130460;1087;22553;-65
2021/06/19 08:54:01;;;;;;;11.63;3.15;;;;;;;25.78;54.14;99944.34;130358;1090;113595;-65
2021/06/19 08:56:30;;;;;;;5.63;3.38;;;;;;;25.84;54.08;99932.58;130477;1090;22629;-64
2021/06/19 08:59:01;;;;;;;8.60;3.10;;;;;;;25.89;53.14;99935.14;130369;1088;113927;-64
2021/06/19 09:01:33;;;;;;;11.95;3.73;;;;;;;25.93;52.58;99933.28;130421;1087;22566;-64
2021/06/19 09:04:05;;;;;;;8.63;3.30;;;;;;;25.95;52.79;99944.11;130318;1087;117550;-63
2021/06/19 09:06:37;;;;;;;9.90;3.63;;;;;;;25.93;52.79;99933.28;130448;1089;22662;-64
2021/06/19 09:09:24;;;;;;;8.60;3.33;;;;;;;25.94;52.84;99939.69;130430;1089;22548;-64
2021/06/19 09:11:55;;;;;;;;;;;;;;;25.95;53.22;99930.15;130314;1087;113831;-64
2021/06/19 09:14:24;;;;;;;16.03;4.03;;;;;;;25.97;53.21;99925.81;130459;1090;21258;-65
2021/06/19 09:17:00;;;;;;;10.63;3.70;;;;;;;26.01;53.02;99931.52;130319;1090;115567;-64
2021/06/19 09:19:34;;;;;;;16.68;3.40;;;;;;;26.05;52.91;99932.45;130466;1088;23683;-64
2021/06/19 09:22:11;;;;;;;6.73;3.23;;;;;;;26.10;51.39;99932.22;130315;1090;115285;-65
2021/06/19 09:24:52;;;;;;;10.50;2.98;;;;;;;26.14;51.82;99929.52;130468;1090;23338;-64
2021/06/19 09:27:28;;;;;;;8.08;3.63;;;;;;;26.15;51.12;99923.58;130378;1090;22539;-65
2021/06/19 09:30:12;;;;;;;9.33;3.08;;;;;;;26.15;51.41;99929.16;130332;1090;114011;-66
2021/06/19 09:32:45;;;;;;;11.20;3.90;;;;;;;26.18;52.39;99919.27;130421;1089;22588;-66
2021/06/19 09:35:20;;;;;;;13.68;3.80;;;;;;;26.25;51.54;99927.89;130340;1089;114120;-67
2021/06/19 09:37:49;;;;;;;12.90;3.65;;;;;;;26.33;51.22;99929.75;130414;1090;22565;-66
2021/06/19 09:40:39;;;;;;;7.53;3.00;;;;;;;26.34;51.65;99921.02;130368;1088;114239;-66
2021/06/19 09:43:14;;;;;;;6.65;2.95;;;;;;;26.38;51.65;99915.54;130448;1089;23154;-66
2021/06/19 09:46:02;;;;;;;21.68;5.33;;;;;;;26.41;51.88;99912.02;130437;1090;22519;-66
2021/06/19 09:48:38;;;;;;;40.83;4.73;;;;;;;26.44;51.46;99916.90;130418;1090;22575;-66
2021/06/19 09:51:14;;;;;;;21.17;4.33;;;;;;;26.48;51.28;99926.21;130458;1089;22857;-66
2021/06/19 09:53:44;;;;;;;7.43;3.10;;;;;;;26.49;51.53;99911.07;130330;1090;114910;-66
2021/06/19 09:56:13;;;;;;;6.45;3.00;;;;;;;26.52;52.25;99913.16;130427;1089;22589;-66
2021/06/19 09:58:47;;;;;;;6.40;2.78;;;;;;;26.56;50.54;99916.84;130311;1090;114296;-66
2021/06/19 10:01:37;;;;;;;15.60;3.20;;;;;;;26.58;49.49;99902.52;130450;1090;22542;-66
2021/06/19 10:04:06;;;;;;;6.40;2.45;;;;;;;26.60;49.30;99905.78;130419;1090;22638;-66
2021/06/19 10:06:36;;;;;;;9.15;3.25;;;;;;;26.62;49.89;99909.84;130377;1090;113418;-66
2021/06/19 10:09:08;;;;;;;10.68;3.58;;;;;;;26.63;50.25;99897.50;130438;1088;22535;-66
2021/06/19 10:11:37;;;;;;;9.58;3.40;;;;;;;26.63;50.29;99893.89;130369;1088;114992;-66
2021/06/19 10:14:08;;;;;;;15.33;3.38;;;;;;;26.64;49.93;99901.11;130429;1090;22547;-66
2021/06/19 10:16:40;;;;;;;10.93;4.10;;;;;;;26.65;50.42;99897.15;130325;1090;114175;-66
2021/06/19 10:19:09;;;;;;;13.90;3.15;;;;;;;26.70;51.08;99891.28;130435;1089;22648;-65
2021/06/19 10:21:37;;;;;;;8.08;3.13;;;;;;;26.79;50.86;99888.34;130448;1090;23160;-66
2021/06/19 10:24:08;;;;;;;10.93;3.70;;;;;;;26.87;50.21;99884.56;130302;1090;113819;-66
2021/06/19 10:26:37;;;;;;;15.55;3.63;;;;;;;26.94;49.12;99882.00;130437;1090;22625;-66
2021/06/19 10:29:06;;;;;;;16.00;3.68;;;;;;;26.98;48.74;99888.52;130294;1090;114331;-66
2021/06/19 10:31:42;;;;;;;9.10;3.00;;;;;;;27.00;49.21;99886.95;130446;1090;22544;-66
2021/06/19 10:34:22;;;;;;;12.38;2.80;;;;;;;27.04;49.56;99884.27;130446;1090;23623;-66
2021/06/19 10:36:52;;;;;;;8.40;2.90;;;;;;;27.04;48.58;99885.08;130414;1089;113716;-66
2021/06/19 10:39:49;;;;;;;12.23;2.78;;;;;;;27.03;48.83;99880.65;130426;1089;22573;-66
2021/06/19 10:42:29;;;;;;;6.85;2.80;;;;;;;27.07;49.08;99880.75;129948;1090;114016;-66
2021/06/19 10:44:59;;;;;;;10.55;3.23;;;;;;;27.09;50.03;99887.62;130024;1092;22651;-66
2021/06/19 10:47:29;;;;;;;9.75;2.68;;;;;;;27.12;48.99;99882.48;129928;1093;113965;-66
2021/06/19 10:49:58;;;;;;;19.75;2.98;;;;;;;27.10;48.93;99880.04;129977;1093;22724;-66
2021/06/19 10:52:29;;;;;;;5.85;2.60;;;;;;;27.06;48.38;99879.94;130016;1093;23642;-67
2021/06/19 10:55:20;;;;;;;10.43;3.18;;;;;;;27.05;48.57;99878.31;129882;1093;114146;-67
2021/06/19 11:00:43;;;;;;;11.63;3.37;;;;;;;27.12;48.22;99876.88;125369;1093;23408;-65
2021/06/19 11:03:12;;;;;;;10.40;3.05;;;;;;;27.17;48.02;99879.39;125186;1093;23391;-66
2021/06/19 11:05:43;;;;;;;7.33;3.18;;;;;;;27.21;46.80;99883.11;124997;1093;114010;-66
2021/06/19 11:08:12;;;;;;;11.53;3.65;;;;;;;27.22;47.71;99882.75;125102;1091;22957;-66
2021/06/19 11:10:48;;;;;;;9.83;3.47;;;;;;;27.25;46.93;99884.83;124994;1093;114135;-66
2021/06/19 11:13:28;;;;;;;10.40;2.75;;;;;;;27.23;47.23;99887.17;125170;1093;22903;-65
2021/06/19 11:16:03;;;;;;;13.03;3.33;;;;;;;27.20;47.44;99889.88;129704;1092;23660;-66
2021/06/19 11:18:52;;;;;;;7.37;2.53;;;;;;;27.20;47.41;99884.27;129683;1093;113712;-66
2021/06/19 11:21:24;;;;;;;18.48;3.38;;;;;;;27.19;47.45;99885.45;129723;1093;22584;-66
2021/06/19 11:24:04;;;;;;;11.95;3.60;;;;;;;27.15;47.26;99881.73;129666;1093;113707;-66
2021/06/19 11:26:55;;;;;;;7.23;2.97;;;;;;;27.10;46.75;99889.25;127124;1093;27641;-67
2021/06/19 11:29:38;;;;;;;20.35;9.50;;;;;;;27.03;47.37;99888.23;129670;1092;114507;-67
2021/06/19 11:32:32;;;;;;;8.48;3.63;;;;;;;26.97;46.85;99886.89;129747;1092;22546;-66
2021/06/19 11:35:03;;;;;;;7.13;3.38;;;;;;;26.94;47.51;99894.00;129698;1093;113929;-66
2021/06/19 11:37:51;;;;;;;5.05;2.20;;;;;;;26.90;47.38;99887.45;129778;1093;22679;-67
2021/06/19 11:40:30;;;;;;;8.68;3.53;;;;;;;26.86;47.58;99880.14;129826;1093;22588;-67